createdAt,value
2023-03-13T00:01:13.638Z,73.09
2023-03-13T00:03:41.654Z,72.66
2023-03-13T00:06:10.153Z,72.41
2023-03-13T00:08:38.335Z,72.68
2023-03-13T00:11:07.003Z,72.39
2023-03-13T00:13:36.620Z,73.19
2023-03-13T00:16:06.847Z,73.00
2023-03-13T00:18:35.381Z,73.11
2023-03-13T00:21:05.301Z,73.32
2023-03-13T00:23:35.074Z,73.24
2023-03-13T00:26:05.653Z,72.47
2023-03-13T00:28:34.935Z,71.93
2023-03-13T00:31:06.060Z,72.95
2023-03-13T00:33:34.362Z,72.40
2023-03-13T00:36:02.747Z,71.61
2023-03-13T00:38:32.849Z,71.50
2023-03-13T00:41:02.482Z,71.94
2023-03-13T00:43:30.684Z,72.13
2023-03-13T00:45:58.976Z,70.91
2023-03-13T00:48:28.782Z,71.32
2023-03-13T00:50:56.831Z,71.82
2023-03-13T00:53:25.044Z,72.52
2023-03-13T00:55:58.217Z,72.40
2023-03-13T00:58:27.612Z,71.28
2023-03-13T01:00:56.084Z,70.55
2023-03-13T01:03:26.841Z,70.51
2023-03-13T01:06:01.173Z,70.70
2023-03-13T01:08:30.256Z,70.47
2023-03-13T01:11:01.867Z,70.24
2023-03-13T01:13:33.014Z,69.44
2023-03-13T01:16:04.383Z,70.57
2023-03-13T01:18:32.471Z,71.46
2023-03-13T01:21:01.766Z,71.98
2023-03-13T01:23:29.809Z,71.94
2023-03-13T01:25:58.237Z,70.73
2023-03-13T01:28:27.473Z,70.60
2023-03-13T01:30:55.664Z,70.54
2023-03-13T01:33:23.691Z,71.60
2023-03-13T01:35:51.717Z,72.61
2023-03-13T01:38:21.134Z,73.25
2023-03-13T01:40:50.528Z,74.35
2023-03-13T01:43:27.044Z,74.40
2023-03-13T01:46:13.723Z,74.08
2023-03-13T01:48:48.386Z,73.98
2023-03-13T01:51:20.184Z,74.62
2023-03-13T01:53:52.949Z,75.37
2023-03-13T01:56:27.729Z,75.23
2023-03-13T01:58:58.996Z,75.84
2023-03-13T02:01:27.868Z,76.24
2023-03-13T02:03:59.081Z,76.57
2023-03-13T02:06:31.932Z,75.77
2023-03-13T02:09:06.285Z,74.89
2023-03-13T02:11:43.172Z,76.08
2023-03-13T02:14:11.317Z,76.60
2023-03-13T02:16:39.797Z,76.08
2023-03-13T02:19:20.033Z,76.10
2023-03-13T02:21:54.794Z,76.21
2023-03-13T02:24:33.982Z,76.04
2023-03-13T02:27:04.620Z,76.08
2023-03-13T02:29:32.570Z,75.84
2023-03-13T02:32:00.543Z,77.00
2023-03-13T02:34:33.914Z,76.95
2023-03-13T02:37:05.695Z,77.99
2023-03-13T02:39:35.264Z,78.32
2023-03-13T02:42:05.062Z,78.62
2023-03-13T02:44:33.014Z,79.51
2023-03-13T02:47:00.925Z,80.20
2023-03-13T02:49:30.625Z,80.72
2023-03-13T02:52:00.940Z,80.96
2023-03-13T02:54:33.913Z,80.90
2023-03-13T02:57:05.788Z,81.86
2023-03-13T02:59:35.186Z,80.97
2023-03-13T03:02:03.429Z,81.56
2023-03-13T03:04:31.477Z,81.73
2023-03-13T03:06:59.527Z,82.59
2023-03-13T03:09:27.513Z,82.63
2023-03-13T03:11:55.523Z,84.03
2023-03-13T03:14:24.870Z,84.61
2023-03-13T03:16:52.795Z,86.08
2023-03-13T03:19:20.813Z,86.31
2023-03-13T03:21:49.766Z,86.26
2023-03-13T03:24:17.922Z,86.62
2023-03-13T03:26:46.113Z,88.62
2023-03-13T03:29:14.070Z,88.45
2023-03-13T03:31:43.550Z,89.18
2023-03-13T03:34:11.592Z,89.44
2023-03-13T03:36:39.484Z,89.92
2023-03-13T03:39:07.430Z,89.18
2023-03-13T03:41:35.849Z,89.39
2023-03-13T03:44:03.800Z,90.45
2023-03-13T03:46:31.828Z,90.48
2023-03-13T03:49:01.254Z,90.91
2023-03-13T03:51:29.165Z,91.17
2023-03-13T03:53:57.091Z,91.27
2023-03-13T03:56:24.995Z,90.47
2023-03-13T03:58:52.882Z,90.48
2023-03-13T04:01:20.761Z,90.99
2023-03-13T04:03:49.325Z,88.54
2023-03-13T04:06:18.652Z,89.40
2023-03-13T04:08:46.623Z,89.36
2023-03-13T04:11:14.590Z,88.56
2023-03-13T04:13:42.536Z,88.81
2023-03-13T04:16:11.368Z,88.13
2023-03-13T04:18:39.446Z,88.26
2023-03-13T04:21:07.776Z,87.23
2023-03-13T04:23:37.137Z,87.97
2023-03-13T04:26:05.316Z,86.45
2023-03-13T04:28:33.298Z,86.97
2023-03-13T04:31:01.461Z,87.74
2023-03-13T04:33:29.622Z,88.01
2023-03-13T04:35:57.555Z,87.94
2023-03-13T04:38:25.592Z,87.63
2023-03-13T04:40:54.874Z,87.70
2023-03-13T04:43:22.782Z,87.49
2023-03-13T04:45:54.674Z,87.70
2023-03-13T04:48:22.748Z,88.12
2023-03-13T04:50:50.856Z,87.41
2023-03-13T04:53:19.424Z,88.29
2023-03-13T04:55:49.819Z,89.48
2023-03-13T04:58:19.215Z,90.75
2023-03-13T05:00:47.118Z,90.46
2023-03-13T05:03:15.027Z,91.50
2023-03-13T05:05:42.929Z,92.12
2023-03-13T05:08:11.371Z,89.96
2023-03-13T05:10:39.314Z,89.18
2023-03-13T05:13:07.268Z,91.92
2023-03-13T05:15:36.597Z,92.39
2023-03-13T05:18:04.707Z,91.87
2023-03-13T05:20:32.627Z,92.50
2023-03-13T05:23:00.591Z,92.33
2023-03-13T05:25:28.503Z,91.85
2023-03-13T05:27:56.469Z,90.95
2023-03-13T05:30:26.546Z,91.00
2023-03-13T05:32:56.013Z,91.10
2023-03-13T05:35:24.073Z,91.21
2023-03-13T05:37:52.195Z,90.73
2023-03-13T05:40:20.355Z,90.21
2023-03-13T05:42:48.346Z,89.80
2023-03-13T05:45:16.556Z,89.38
2023-03-13T05:47:44.504Z,88.74
2023-03-13T05:50:14.029Z,89.04
2023-03-13T05:52:41.961Z,88.26
2023-03-13T05:55:10.416Z,88.95
2023-03-13T05:57:39.535Z,89.11
2023-03-13T06:00:08.751Z,88.88
2023-03-13T06:02:36.730Z,89.47
2023-03-13T06:05:05.272Z,89.06
2023-03-13T06:07:34.633Z,90.11
2023-03-13T06:10:02.595Z,89.09
2023-03-13T06:12:30.548Z,88.96
2023-03-13T06:14:58.462Z,89.52
2023-03-13T06:17:26.647Z,89.41
2023-03-13T06:19:54.561Z,89.57
2023-03-13T06:22:22.732Z,90.05
2023-03-13T06:24:52.048Z,90.68
2023-03-13T06:27:19.990Z,89.98
2023-03-13T06:29:47.930Z,89.55
2023-03-13T06:32:15.911Z,89.90
2023-03-13T06:34:43.823Z,90.32
2023-03-13T06:37:11.753Z,90.22
2023-03-13T06:39:39.670Z,90.74
2023-03-13T06:42:09.644Z,89.85
2023-03-13T06:44:37.690Z,88.67
2023-03-13T06:47:05.896Z,89.10
2023-03-13T06:49:33.961Z,89.53
2023-03-13T06:52:01.838Z,89.25
2023-03-13T06:54:30.007Z,87.76
2023-03-13T06:56:57.942Z,88.63
2023-03-13T06:59:27.320Z,87.48
2023-03-13T07:01:56.037Z,87.99
2023-03-13T07:04:24.026Z,87.24
2023-03-13T07:06:52.548Z,85.93
2023-03-13T07:09:21.044Z,88.13
2023-03-13T07:11:49.290Z,86.73
2023-03-13T07:14:17.845Z,87.13
2023-03-13T07:16:47.778Z,86.39
2023-03-13T07:19:16.344Z,87.27
2023-03-13T07:21:44.550Z,87.50
2023-03-13T07:24:12.531Z,87.68
2023-03-13T07:26:48.556Z,87.01
2023-03-13T07:29:22.380Z,87.17
2023-03-13T07:31:51.962Z,86.49
2023-03-13T07:34:21.150Z,85.62
2023-03-13T07:36:49.022Z,85.98
2023-03-13T07:39:18.377Z,85.57
2023-03-13T07:41:46.695Z,83.46
2023-03-13T07:44:14.667Z,84.47
2023-03-13T07:46:42.593Z,83.58
2023-03-13T07:49:12.229Z,84.02
2023-03-13T07:51:44.057Z,82.64
2023-03-13T07:54:12.359Z,82.78
2023-03-13T07:56:41.100Z,82.22
2023-03-13T07:59:09.581Z,83.18
2023-03-13T08:01:38.067Z,82.94
2023-03-13T08:04:06.410Z,82.12
2023-03-13T08:06:36.859Z,83.06
2023-03-13T08:09:05.680Z,81.92
2023-03-13T08:11:33.824Z,82.05
2023-03-13T08:14:04.023Z,81.86
2023-03-13T08:16:34.827Z,80.79
2023-03-13T08:19:05.980Z,80.20
2023-03-13T08:21:36.727Z,80.54
2023-03-13T08:24:07.093Z,80.35
2023-03-13T08:26:36.565Z,80.15
2023-03-13T08:29:08.410Z,79.39
2023-03-13T08:31:38.734Z,79.83
2023-03-13T08:34:06.725Z,78.50
2023-03-13T08:36:37.902Z,77.72
2023-03-13T08:39:08.004Z,77.79
2023-03-13T08:41:37.667Z,77.47
2023-03-13T08:44:06.416Z,76.76
2023-03-13T08:46:36.335Z,75.44
2023-03-13T08:49:05.796Z,74.49
2023-03-13T08:51:36.216Z,73.55
2023-03-13T08:54:05.040Z,73.16
2023-03-13T08:56:34.933Z,72.31
2023-03-13T08:59:04.841Z,73.24
2023-03-13T09:01:34.525Z,72.09
2023-03-13T09:04:04.494Z,71.69
2023-03-13T09:06:33.540Z,71.83
2023-03-13T09:09:03.623Z,71.04
2023-03-13T09:11:31.559Z,71.91
2023-03-13T09:14:00.354Z,70.46
2023-03-13T09:16:30.174Z,69.84
2023-03-13T09:18:58.786Z,70.94
2023-03-13T09:21:27.881Z,70.74
2023-03-13T09:23:55.844Z,69.32
2023-03-13T09:26:25.897Z,69.23
2023-03-13T09:28:54.316Z,70.90
2023-03-13T09:31:24.764Z,69.65
2023-03-13T09:33:53.430Z,70.18
2023-03-13T09:36:23.090Z,70.47
2023-03-13T09:38:51.726Z,71.88
2023-03-13T09:41:27.943Z,69.87
2023-03-13T09:44:03.716Z,68.68
2023-03-13T09:46:39.042Z,68.54
2023-03-13T09:49:17.854Z,67.57
2023-03-13T09:51:53.329Z,67.08
2023-03-13T09:54:27.494Z,65.73
2023-03-13T09:57:00.093Z,65.74
2023-03-13T09:59:37.774Z,66.61
2023-03-13T10:02:17.794Z,67.25
2023-03-13T10:04:50.369Z,66.21
2023-03-13T10:07:20.934Z,66.36
2023-03-13T10:09:48.925Z,66.14
2023-03-13T10:12:22.060Z,66.09
2023-03-13T10:15:02.158Z,66.66
2023-03-13T10:17:34.484Z,68.70
2023-03-13T10:20:10.247Z,64.63
2023-03-13T10:22:39.284Z,65.15
2023-03-13T10:25:20.970Z,64.80
2023-03-13T10:27:53.718Z,65.12
2023-03-13T10:30:25.755Z,64.44
2023-03-13T10:32:55.994Z,63.83
2023-03-13T10:35:25.967Z,63.71
2023-03-13T10:38:03.674Z,63.29
2023-03-13T10:40:31.826Z,64.69
2023-03-13T10:43:07.092Z,61.59
2023-03-13T10:45:37.791Z,62.47
2023-03-13T10:48:14.226Z,61.62
2023-03-13T10:50:44.549Z,60.20
2023-03-13T10:53:25.478Z,58.53
2023-03-13T10:55:59.099Z,58.42
2023-03-13T10:58:31.647Z,57.28
2023-03-13T11:01:16.212Z,58.61
2023-03-13T11:03:45.035Z,58.35
2023-03-13T11:06:26.428Z,59.76
2023-03-13T11:09:01.154Z,57.34
2023-03-13T11:11:31.196Z,58.19
2023-03-13T11:14:14.406Z,56.33
2023-03-13T11:16:50.485Z,57.25
2023-03-13T11:19:44.038Z,57.01
2023-03-13T11:22:31.707Z,55.96
2023-03-13T11:25:16.305Z,57.51
2023-03-13T11:27:49.956Z,55.76
2023-03-13T11:30:33.953Z,55.60
2023-03-13T11:33:03.202Z,55.60
2023-03-13T11:35:41.001Z,55.91
2023-03-13T11:38:20.079Z,56.00
2023-03-13T11:40:56.363Z,54.81
2023-03-13T11:43:45.451Z,54.99
2023-03-13T11:46:32.512Z,54.78
2023-03-13T11:49:42.031Z,56.84
2023-03-13T11:52:19.693Z,54.71
2023-03-13T11:55:15.287Z,55.26
2023-03-13T11:57:51.443Z,54.81
2023-03-13T12:00:26.881Z,54.79
2023-03-13T12:03:00.389Z,54.19
2023-03-13T12:05:32.894Z,53.60
2023-03-13T12:08:06.771Z,55.11
2023-03-13T12:10:38.055Z,54.13
2023-03-13T12:13:11.258Z,53.16
2023-03-13T12:15:42.966Z,52.21
2023-03-13T12:18:19.357Z,52.65
2023-03-13T12:20:56.079Z,52.57
2023-03-13T12:23:30.124Z,51.33
2023-03-13T12:26:04.379Z,51.90
2023-03-13T12:28:39.065Z,50.73
2023-03-13T12:31:15.485Z,53.62
2023-03-13T12:33:49.540Z,50.56
2023-03-13T12:36:26.240Z,52.71
2023-03-13T12:38:58.658Z,50.84
2023-03-13T12:41:31.214Z,50.65
2023-03-13T12:44:09.248Z,52.37
2023-03-13T12:46:41.967Z,49.35
2023-03-13T12:49:43.914Z,49.94
2023-03-13T12:52:35.241Z,53.28
2023-03-13T12:55:24.972Z,48.71
2023-03-13T12:58:19.846Z,49.88
2023-03-13T13:00:51.333Z,50.73
2023-03-13T13:03:31.235Z,51.18
2023-03-13T13:06:04.912Z,50.16
2023-03-13T13:08:37.370Z,49.82
2023-03-13T13:11:49.806Z,50.24
2023-03-13T13:14:54.478Z,53.85
2023-03-13T13:17:29.178Z,52.48
2023-03-13T13:19:57.676Z,53.07
2023-03-13T13:22:52.564Z,52.19
2023-03-13T13:25:35.259Z,52.70
2023-03-13T13:28:27.234Z,52.56
2023-03-13T13:30:58.041Z,52.84
2023-03-13T13:33:46.450Z,51.28
2023-03-13T13:36:44.737Z,50.76
2023-03-13T13:39:43.864Z,49.50
2023-03-13T13:42:43.806Z,49.46
2023-03-13T13:45:28.678Z,49.41
2023-03-13T13:48:28.092Z,50.30
2023-03-13T13:51:24.040Z,51.70
2023-03-13T13:53:56.094Z,50.95
2023-03-13T13:56:47.400Z,51.17
2023-03-13T13:59:36.330Z,50.93
2023-03-13T14:02:18.193Z,50.21
2023-03-13T14:04:50.433Z,49.15
2023-03-13T14:07:22.066Z,52.00
2023-03-13T14:09:59.349Z,49.54
2023-03-13T14:12:31.008Z,49.92
2023-03-13T14:15:16.039Z,52.93
2023-03-13T14:17:45.467Z,49.80
2023-03-13T14:20:36.012Z,49.34
2023-03-13T14:23:06.643Z,47.83
2023-03-13T14:25:46.657Z,50.12
2023-03-13T14:28:24.759Z,47.78
2023-03-13T14:30:55.756Z,51.92
2023-03-13T14:33:25.695Z,51.92
2023-03-13T14:35:54.811Z,47.39
2023-03-13T14:38:24.509Z,46.76
2023-03-13T14:40:54.332Z,45.70
2023-03-13T14:43:29.855Z,44.66
2023-03-13T14:45:58.446Z,45.91
2023-03-13T14:48:32.029Z,42.79
2023-03-13T14:51:15.462Z,46.23
2023-03-13T14:53:56.035Z,43.49
2023-03-13T14:56:33.474Z,41.64
2023-03-13T14:59:18.317Z,41.42
2023-03-13T15:01:47.224Z,41.66
2023-03-13T15:04:15.320Z,39.88
2023-03-13T15:06:43.386Z,39.59
2023-03-13T15:09:21.220Z,40.09
2023-03-13T15:12:07.322Z,41.38
2023-03-13T15:14:41.978Z,42.13
2023-03-13T15:17:18.927Z,39.44
2023-03-13T15:19:51.023Z,42.03
2023-03-13T15:22:21.611Z,38.57
2023-03-13T15:25:05.029Z,38.26
2023-03-13T15:27:33.913Z,37.90
2023-03-13T15:30:03.620Z,37.57
2023-03-13T15:32:34.771Z,38.33
2023-03-13T15:35:03.488Z,37.55
2023-03-13T15:37:32.167Z,38.45
2023-03-13T15:40:00.410Z,38.08
2023-03-13T15:42:28.621Z,37.84
2023-03-13T15:44:56.601Z,38.08
2023-03-13T15:47:27.457Z,39.89
2023-03-13T15:49:55.404Z,38.23
2023-03-13T15:52:24.899Z,38.85
2023-03-13T15:54:53.274Z,38.96
2023-03-13T15:57:24.167Z,41.65
2023-03-13T15:59:52.204Z,37.99
2023-03-13T16:02:22.073Z,37.39
2023-03-13T16:04:52.309Z,38.01
2023-03-13T16:07:22.151Z,37.95
2023-03-13T16:09:50.469Z,37.88
2023-03-13T16:12:18.523Z,35.88
2023-03-13T16:14:46.472Z,37.90
2023-03-13T16:17:16.561Z,36.34
2023-03-13T16:19:44.905Z,39.23
2023-03-13T16:22:14.642Z,40.37
2023-03-13T16:24:42.785Z,39.29
2023-03-13T16:27:15.117Z,37.70
2023-03-13T16:29:43.136Z,39.45
2023-03-13T16:32:14.049Z,37.42
2023-03-13T16:34:43.212Z,41.31
2023-03-13T16:37:15.465Z,38.90
2023-03-13T16:39:44.233Z,40.49
2023-03-13T16:42:12.841Z,40.29
2023-03-13T16:44:41.488Z,39.23
2023-03-13T16:47:23.068Z,42.61
2023-03-13T16:49:51.295Z,40.20
2023-03-13T16:52:20.938Z,38.94
2023-03-13T16:54:49.116Z,38.99
2023-03-13T16:57:19.446Z,40.16
2023-03-13T16:59:47.614Z,43.59
2023-03-13T17:02:17.585Z,40.65
2023-03-13T17:04:46.245Z,41.43
2023-03-13T17:07:24.220Z,44.21
2023-03-13T17:09:53.187Z,43.54
2023-03-13T17:12:21.345Z,42.18
2023-03-13T17:14:49.620Z,42.75
2023-03-13T17:17:19.778Z,42.72
2023-03-13T17:19:48.328Z,44.21
2023-03-13T17:22:18.837Z,42.94
2023-03-13T17:24:49.292Z,42.94
2023-03-13T17:27:26.023Z,43.19
2023-03-13T17:29:54.106Z,43.03
2023-03-13T17:32:25.293Z,43.43
2023-03-13T17:34:53.893Z,44.35
2023-03-13T17:37:23.197Z,44.17
2023-03-13T17:39:53.461Z,45.17
2023-03-13T17:42:21.752Z,44.29
2023-03-13T17:44:50.350Z,44.77
2023-03-13T17:47:24.938Z,44.48
2023-03-13T17:49:53.237Z,45.06
2023-03-13T17:52:21.621Z,44.51
2023-03-13T17:54:49.924Z,45.42
2023-03-13T17:57:22.100Z,44.97
2023-03-13T17:59:50.575Z,44.85
2023-03-13T18:02:19.429Z,43.56
2023-03-13T18:04:49.061Z,44.42
2023-03-13T18:07:23.129Z,47.47
2023-03-13T18:09:51.258Z,45.71
2023-03-13T18:12:21.148Z,46.29
2023-03-13T18:14:49.156Z,47.74
2023-03-13T18:17:19.521Z,44.42
2023-03-13T18:19:47.863Z,44.48
2023-03-13T18:22:17.662Z,44.83
2023-03-13T18:24:46.356Z,45.07
2023-03-13T18:27:16.397Z,44.97
2023-03-13T18:29:47.282Z,46.18
2023-03-13T18:32:19.012Z,48.10
2023-03-13T18:34:52.098Z,47.80
2023-03-13T18:37:35.493Z,47.36
2023-03-13T18:40:07.506Z,47.80
2023-03-13T18:42:39.820Z,48.73
2023-03-13T18:45:47.721Z,47.98
2023-03-13T18:48:14.702Z,47.36
2023-03-13T18:50:42.985Z,47.89
2023-03-13T18:53:11.086Z,47.26
2023-03-13T18:55:39.228Z,50.28
2023-03-13T18:58:08.718Z,48.04
2023-03-13T19:00:39.004Z,49.32
2023-03-13T19:03:07.254Z,52.50
2023-03-13T19:05:35.416Z,65.00
2023-03-13T19:08:03.472Z,74.06
2023-03-13T19:10:32.403Z,78.79
2023-03-13T19:13:00.690Z,80.77
2023-03-13T19:15:31.687Z,83.96
2023-03-13T19:18:03.900Z,93.40
2023-03-13T19:20:32.178Z,95.35
2023-03-13T19:23:00.917Z,100.00
2023-03-13T19:25:30.442Z,100.00
2023-03-13T19:27:58.397Z,100.00
2023-03-13T19:30:27.553Z,100.00
2023-03-13T19:32:55.557Z,100.00
2023-03-13T19:35:25.002Z,100.00
2023-03-13T19:37:52.975Z,100.00
2023-03-13T19:40:23.974Z,100.00
2023-03-13T19:42:51.912Z,100.00
2023-03-13T19:45:21.945Z,100.00
2023-03-13T19:47:50.097Z,100.00
2023-03-13T19:50:20.621Z,100.00
2023-03-13T19:52:50.262Z,100.00
2023-03-13T19:55:18.247Z,100.00
2023-03-13T19:57:46.495Z,100.00
2023-03-13T20:00:20.527Z,100.00
2023-03-13T20:02:48.583Z,100.00
2023-03-13T20:05:16.614Z,100.00
2023-03-13T20:07:45.609Z,100.00
2023-03-13T20:10:15.138Z,100.00
2023-03-13T20:12:43.076Z,100.00
2023-03-13T20:15:12.242Z,100.00
2023-03-13T20:17:40.631Z,100.00
2023-03-13T20:20:10.126Z,100.00
2023-03-13T20:22:38.127Z,100.00
2023-03-13T20:25:06.666Z,100.00
2023-03-13T20:27:36.013Z,100.00
2023-03-13T20:30:05.000Z,100.00
2023-03-13T20:32:33.254Z,100.00
2023-03-13T20:35:02.562Z,100.00
2023-03-13T20:37:31.201Z,100.00
2023-03-13T20:39:59.400Z,100.00
2023-03-13T20:42:27.411Z,100.00
2023-03-13T20:44:56.722Z,100.00
2023-03-13T20:47:24.951Z,100.00
2023-03-13T20:49:52.838Z,100.00
2023-03-13T20:52:20.849Z,100.00
2023-03-13T20:54:48.739Z,100.00
2023-03-13T20:57:19.484Z,100.00
2023-03-13T20:59:48.379Z,100.00
2023-03-13T21:02:20.946Z,100.00
2023-03-13T21:04:49.709Z,100.00
2023-03-13T21:07:17.682Z,100.00
2023-03-13T21:09:45.623Z,100.00
2023-03-13T21:12:13.724Z,100.00
2023-03-13T21:14:41.929Z,100.00
2023-03-13T21:17:12.951Z,100.00
2023-03-13T21:19:44.021Z,100.00
2023-03-13T21:22:12.402Z,100.00
2023-03-13T21:24:40.854Z,100.00
2023-03-13T21:27:08.931Z,100.00
2023-03-13T21:29:37.017Z,100.00
2023-03-13T21:32:05.263Z,100.00
2023-03-13T21:34:33.690Z,100.00
2023-03-13T21:37:03.124Z,100.00
2023-03-13T21:39:31.455Z,100.00
2023-03-13T21:42:00.257Z,100.00
2023-03-13T21:44:28.232Z,100.00
2023-03-13T21:46:56.213Z,100.00
2023-03-13T21:49:24.629Z,100.00
2023-03-13T21:51:53.275Z,100.00
2023-03-13T21:54:22.800Z,100.00
2023-03-13T21:56:50.655Z,100.00
2023-03-13T21:59:19.201Z,100.00
2023-03-13T22:01:47.129Z,100.00
2023-03-13T22:04:15.287Z,100.00
2023-03-13T22:06:43.143Z,100.00
2023-03-13T22:09:11.239Z,100.00
2023-03-13T22:11:40.491Z,100.00
2023-03-13T22:14:08.451Z,100.00
2023-03-13T22:16:36.325Z,100.00
2023-03-13T22:19:04.271Z,100.00
2023-03-13T22:21:32.303Z,100.00
2023-03-13T22:24:00.407Z,100.00
2023-03-13T22:26:28.283Z,100.00
2023-03-13T22:28:57.606Z,100.00
2023-03-13T22:31:25.492Z,100.00
2023-03-13T22:33:53.542Z,100.00
2023-03-13T22:36:21.547Z,100.00
2023-03-13T22:38:49.579Z,100.00
2023-03-13T22:41:18.438Z,100.00
2023-03-13T22:43:46.350Z,100.00
2023-03-13T22:46:15.653Z,100.00
2023-03-13T22:48:43.600Z,100.00
2023-03-13T22:51:13.560Z,100.00
2023-03-13T22:53:42.801Z,100.00
2023-03-13T22:56:12.379Z,100.00
2023-03-13T22:58:41.788Z,100.00
2023-03-13T23:01:11.270Z,100.00
2023-03-13T23:03:40.718Z,100.00
2023-03-13T23:06:10.512Z,100.00
2023-03-13T23:08:38.661Z,100.00
2023-03-13T23:11:07.198Z,100.00
2023-03-13T23:13:35.491Z,100.00
2023-03-13T23:16:06.776Z,100.00
2023-03-13T23:18:34.733Z,100.00
2023-03-13T23:21:07.342Z,100.00
2023-03-13T23:23:35.524Z,100.00
2023-03-13T23:26:03.584Z,100.00
2023-03-13T23:28:31.567Z,100.00
2023-03-13T23:30:59.459Z,100.00
2023-03-13T23:33:27.539Z,100.00
2023-03-13T23:35:55.574Z,100.00
2023-03-13T23:38:26.470Z,99.76
2023-03-13T23:40:54.372Z,97.20
2023-03-13T23:43:22.299Z,99.15
2023-03-13T23:45:50.171Z,99.39
2023-03-13T23:48:18.112Z,97.91
2023-03-13T23:50:46.570Z,96.05
2023-03-13T23:53:14.541Z,96.69
2023-03-13T23:55:43.846Z,93.03
2023-03-13T23:58:11.870Z,91.69
